createdAt,value
2022-12-03T00:02:13.362Z,58.21
2022-12-03T00:04:39.827Z,54.89
2022-12-03T00:07:06.173Z,55.91
2022-12-03T00:09:32.503Z,54.36
2022-12-03T00:11:58.915Z,55.04
2022-12-03T00:14:25.429Z,56.13
2022-12-03T00:16:51.787Z,56.34
2022-12-03T00:19:18.141Z,56.15
2022-12-03T00:21:44.595Z,55.67
2022-12-03T00:24:11.105Z,55.62
2022-12-03T00:26:37.537Z,56.23
2022-12-03T00:29:03.900Z,56.02
2022-12-03T00:31:30.393Z,56.43
2022-12-03T00:33:56.792Z,56.82
2022-12-03T00:36:27.961Z,57.11
2022-12-03T00:38:54.436Z,57.14
2022-12-03T00:41:20.866Z,56.80
2022-12-03T00:43:47.210Z,56.07
2022-12-03T00:46:18.158Z,55.67
2022-12-03T00:48:47.779Z,55.37
2022-12-03T00:51:14.211Z,55.32
2022-12-03T00:53:43.031Z,55.22
2022-12-03T00:56:09.762Z,53.77
2022-12-03T00:58:36.239Z,53.49
2022-12-03T01:01:05.117Z,53.80
2022-12-03T01:03:31.459Z,54.05
2022-12-03T01:05:57.813Z,54.73
2022-12-03T01:08:24.227Z,54.62
2022-12-03T01:10:50.642Z,55.35
2022-12-03T01:13:17.028Z,55.28
2022-12-03T01:15:43.497Z,55.92
2022-12-03T01:18:12.434Z,56.36
2022-12-03T01:20:38.850Z,55.69
2022-12-03T01:23:05.326Z,55.67
2022-12-03T01:25:31.694Z,55.93
2022-12-03T01:27:58.137Z,55.62
2022-12-03T01:30:24.471Z,55.61
2022-12-03T01:32:50.898Z,55.77
2022-12-03T01:35:17.460Z,55.90
2022-12-03T01:37:44.202Z,55.76
2022-12-03T01:40:10.618Z,56.60
2022-12-03T01:42:36.958Z,57.21
2022-12-03T01:45:03.329Z,57.07
2022-12-03T01:47:29.742Z,57.02
2022-12-03T01:49:56.104Z,56.97
2022-12-03T01:52:22.565Z,56.91
2022-12-03T01:54:48.984Z,56.10
2022-12-03T01:57:15.357Z,55.94
2022-12-03T01:59:41.748Z,55.36
2022-12-03T02:02:08.168Z,54.07
2022-12-03T02:04:34.638Z,54.98
2022-12-03T02:07:00.973Z,55.04
2022-12-03T02:09:27.323Z,55.05
2022-12-03T02:12:04.401Z,54.45
2022-12-03T02:14:30.767Z,54.41
2022-12-03T02:16:57.153Z,54.43
2022-12-03T02:19:23.543Z,54.21
2022-12-03T02:21:50.127Z,53.11
2022-12-03T02:24:16.470Z,53.27
2022-12-03T02:26:42.812Z,53.66
2022-12-03T02:29:09.166Z,54.02
2022-12-03T02:31:35.595Z,53.26
2022-12-03T02:34:02.015Z,52.96
2022-12-03T02:36:28.372Z,52.72
2022-12-03T02:38:54.797Z,52.75
2022-12-03T02:41:21.183Z,54.26
2022-12-03T02:43:47.534Z,55.51
2022-12-03T02:46:22.744Z,55.57
2022-12-03T02:48:49.072Z,55.89
2022-12-03T02:51:15.454Z,55.38
2022-12-03T02:53:44.255Z,53.65
2022-12-03T02:56:10.641Z,53.42
2022-12-03T02:58:36.995Z,53.87
2022-12-03T03:01:03.408Z,54.30
2022-12-03T03:03:29.860Z,53.93
2022-12-03T03:05:56.245Z,54.45
2022-12-03T03:08:22.594Z,54.30
2022-12-03T03:10:48.954Z,54.49
2022-12-03T03:13:15.290Z,54.51
2022-12-03T03:15:41.844Z,55.06
2022-12-03T03:18:08.168Z,55.76
2022-12-03T03:20:39.324Z,56.34
2022-12-03T03:23:05.707Z,55.53
2022-12-03T03:25:32.263Z,55.33
2022-12-03T03:27:58.595Z,54.77
2022-12-03T03:30:25.007Z,54.30
2022-12-03T03:32:51.777Z,55.20
2022-12-03T03:35:18.130Z,54.59
2022-12-03T03:37:44.547Z,54.21
2022-12-03T03:40:10.951Z,54.31
2022-12-03T03:42:37.329Z,53.88
2022-12-03T03:45:03.765Z,55.10
2022-12-03T03:47:30.230Z,56.04
2022-12-03T03:49:56.589Z,56.56
2022-12-03T03:52:22.997Z,56.24
2022-12-03T03:54:49.399Z,55.11
2022-12-03T03:57:15.807Z,56.06
2022-12-03T03:59:42.130Z,55.91
2022-12-03T04:02:08.599Z,55.31
2022-12-03T04:04:35.008Z,55.63
2022-12-03T04:07:01.747Z,55.41
2022-12-03T04:09:28.278Z,55.59
2022-12-03T04:11:54.684Z,55.99
2022-12-03T04:14:20.995Z,54.78
2022-12-03T04:16:47.505Z,54.99
2022-12-03T04:19:13.922Z,55.18
2022-12-03T04:21:40.304Z,55.53
2022-12-03T04:24:06.679Z,55.53
2022-12-03T04:26:33.085Z,56.84
2022-12-03T04:28:59.608Z,56.83
2022-12-03T04:31:26.053Z,55.95
2022-12-03T04:33:52.453Z,55.81
2022-12-03T04:36:25.922Z,56.37
2022-12-03T04:38:52.321Z,56.81
2022-12-03T04:41:18.778Z,56.93
2022-12-03T04:43:45.347Z,56.61
2022-12-03T04:46:12.795Z,56.22
2022-12-03T04:48:39.620Z,56.77
2022-12-03T04:51:06.046Z,56.68
2022-12-03T04:53:33.715Z,56.91
2022-12-03T04:56:02.390Z,57.15
2022-12-03T04:58:28.839Z,57.28
2022-12-03T05:00:55.529Z,56.55
2022-12-03T05:03:21.993Z,56.86
2022-12-03T05:05:48.344Z,57.09
2022-12-03T05:08:14.742Z,57.85
2022-12-03T05:10:42.666Z,57.30
2022-12-03T05:13:08.995Z,57.20
2022-12-03T05:15:38.369Z,57.79
2022-12-03T05:18:07.022Z,58.51
2022-12-03T05:20:33.458Z,57.69
2022-12-03T05:22:59.821Z,58.01
2022-12-03T05:25:26.197Z,58.11
2022-12-03T05:27:54.729Z,57.85
2022-12-03T05:30:21.467Z,57.76
2022-12-03T05:32:47.836Z,58.53
2022-12-03T05:35:14.172Z,58.67
2022-12-03T05:37:40.593Z,58.74
2022-12-03T05:40:06.948Z,58.44
2022-12-03T05:42:33.297Z,58.90
2022-12-03T05:45:02.426Z,59.07
2022-12-03T05:47:28.823Z,58.60
2022-12-03T05:49:55.302Z,58.32
2022-12-03T05:52:21.625Z,58.17
2022-12-03T05:54:47.969Z,58.37
2022-12-03T05:57:14.411Z,58.40
2022-12-03T05:59:40.736Z,59.54
2022-12-03T06:02:10.255Z,59.31
2022-12-03T06:07:27.434Z,60.00
2022-12-03T06:09:53.939Z,60.09
2022-12-03T06:12:20.389Z,60.37
2022-12-03T06:14:46.917Z,60.14
2022-12-03T06:17:13.404Z,60.21
2022-12-03T06:19:39.912Z,59.87
2022-12-03T06:22:06.495Z,60.48
2022-12-03T06:24:33.098Z,60.68
2022-12-03T06:26:59.605Z,60.51
2022-12-03T06:29:28.005Z,60.69
2022-12-03T06:31:54.417Z,61.58
2022-12-03T06:34:20.909Z,62.04
2022-12-03T06:36:47.617Z,61.40
2022-12-03T06:39:14.959Z,61.55
2022-12-03T06:41:41.552Z,61.41
2022-12-03T06:44:08.003Z,61.60
2022-12-03T06:46:34.456Z,62.15
2022-12-03T06:49:00.926Z,61.83
2022-12-03T06:51:27.367Z,61.85
2022-12-03T06:53:53.855Z,62.21
2022-12-03T06:56:22.458Z,62.57
2022-12-03T06:58:49.139Z,61.54
2022-12-03T07:01:15.733Z,61.27
2022-12-03T07:03:42.244Z,61.88
2022-12-03T07:06:08.725Z,61.40
2022-12-03T07:08:35.441Z,61.54
2022-12-03T07:11:03.149Z,61.67
2022-12-03T07:13:29.624Z,61.41
2022-12-03T07:15:56.330Z,61.19
2022-12-03T07:18:23.316Z,61.56
2022-12-03T07:20:49.853Z,61.84
2022-12-03T07:23:16.324Z,61.77
2022-12-03T07:25:48.912Z,61.74
2022-12-03T07:28:15.640Z,62.38
2022-12-03T07:30:49.567Z,62.21
2022-12-03T07:33:16.140Z,62.61
2022-12-03T07:35:42.639Z,62.38
2022-12-03T07:38:09.347Z,62.36
2022-12-03T07:43:21.952Z,62.25
2022-12-03T07:45:57.819Z,62.50
2022-12-03T07:48:24.670Z,62.40
2022-12-03T07:50:58.447Z,61.59
2022-12-03T07:53:24.890Z,62.39
2022-12-03T07:55:51.353Z,61.39
2022-12-03T07:58:17.793Z,61.93
2022-12-03T08:00:44.277Z,61.69
2022-12-03T08:03:10.754Z,61.17
2022-12-03T08:05:37.230Z,61.32
2022-12-03T08:08:11.121Z,61.08
2022-12-03T08:10:41.010Z,61.44
2022-12-03T08:13:07.950Z,61.39
2022-12-03T08:15:39.289Z,61.08
2022-12-03T08:18:13.957Z,61.00
2022-12-03T08:20:40.401Z,61.31
2022-12-03T08:23:06.925Z,60.88
2022-12-03T08:25:33.392Z,61.15
2022-12-03T08:27:59.802Z,60.39
2022-12-03T08:30:26.783Z,60.08
2022-12-03T08:32:53.185Z,59.42
2022-12-03T08:35:23.435Z,59.93
2022-12-03T08:37:50.206Z,59.59
2022-12-03T08:40:25.327Z,60.01
2022-12-03T08:42:59.219Z,60.13
2022-12-03T08:48:15.879Z,60.42
2022-12-03T08:50:45.936Z,60.71
2022-12-03T08:58:54.206Z,60.53
2022-12-03T09:01:20.745Z,61.17
2022-12-03T09:03:47.262Z,60.97
2022-12-03T09:06:13.833Z,60.22
2022-12-03T09:08:40.318Z,61.69
2022-12-03T09:11:06.833Z,60.72
2022-12-03T09:13:36.008Z,61.15
2022-12-03T09:18:42.702Z,60.04
2022-12-03T09:21:09.226Z,59.27
2022-12-03T09:23:39.514Z,59.55
2022-12-03T09:26:05.911Z,59.32
2022-12-03T09:28:32.320Z,59.44
2022-12-03T09:33:41.206Z,59.70
2022-12-03T09:36:09.732Z,59.46
2022-12-03T09:38:37.442Z,59.66
2022-12-03T09:41:05.499Z,59.11
2022-12-03T09:44:02.892Z,59.26
2022-12-03T09:46:18.901Z,59.07
2022-12-03T09:48:47.426Z,59.00
2022-12-03T09:53:54.232Z,58.65
2022-12-03T09:56:20.839Z,58.39
2022-12-03T09:58:47.825Z,58.93
2022-12-03T10:01:18.277Z,58.22
2022-12-03T10:03:57.013Z,58.53
2022-12-03T10:06:23.813Z,58.79
2022-12-03T10:08:50.268Z,58.09
2022-12-03T10:11:17.440Z,59.03
2022-12-03T10:13:44.007Z,58.70
2022-12-03T10:16:11.787Z,58.41
2022-12-03T10:18:41.856Z,59.04
2022-12-03T10:21:08.530Z,59.66
2022-12-03T10:23:42.151Z,58.24
2022-12-03T10:26:08.634Z,57.74
2022-12-03T10:28:38.613Z,57.90
2022-12-03T10:31:05.062Z,57.86
2022-12-03T10:33:31.557Z,58.05
2022-12-03T10:35:58.295Z,58.01
2022-12-03T10:38:35.200Z,58.81
2022-12-03T10:41:06.572Z,59.65
2022-12-03T10:43:36.630Z,58.75
2022-12-03T10:46:08.718Z,58.63
2022-12-03T10:48:35.618Z,59.35
2022-12-03T10:51:02.196Z,58.33
2022-12-03T10:53:29.583Z,58.81
2022-12-03T10:55:57.396Z,58.72
2022-12-03T10:58:24.136Z,58.75
2022-12-03T11:00:50.882Z,58.57
2022-12-03T11:03:17.380Z,59.48
2022-12-03T11:05:44.147Z,58.50
2022-12-03T11:08:10.739Z,58.58
2022-12-03T11:10:37.235Z,58.64
2022-12-03T11:13:03.833Z,58.51
2022-12-03T11:15:30.308Z,58.87
2022-12-03T11:17:56.759Z,59.99
2022-12-03T11:20:23.339Z,59.02
2022-12-03T11:22:49.859Z,58.93
2022-12-03T11:25:19.372Z,58.64
2022-12-03T11:27:47.743Z,58.38
2022-12-03T11:30:14.196Z,58.34
2022-12-03T11:32:40.752Z,58.65
2022-12-03T11:35:07.323Z,58.08
2022-12-03T11:37:33.922Z,57.46
2022-12-03T11:40:00.422Z,57.76
2022-12-03T11:42:27.005Z,57.26
2022-12-03T11:44:53.513Z,57.17
2022-12-03T11:47:19.994Z,57.61
2022-12-03T11:49:46.515Z,57.98
2022-12-03T11:52:12.920Z,57.14
2022-12-03T11:54:39.454Z,57.39
2022-12-03T11:57:06.020Z,57.91
2022-12-03T12:02:13.330Z,57.62
2022-12-03T12:04:39.950Z,57.79
2022-12-03T12:07:06.467Z,56.39
2022-12-03T12:09:32.835Z,56.37
2022-12-03T12:11:59.512Z,56.60
2022-12-03T12:14:27.211Z,56.47
2022-12-03T12:16:53.770Z,56.43
2022-12-03T12:19:20.201Z,56.52
2022-12-03T12:21:46.749Z,57.68
2022-12-03T12:24:13.492Z,58.43
2022-12-03T12:26:40.310Z,58.59
2022-12-03T12:29:08.267Z,58.28
2022-12-03T12:31:35.840Z,60.10
2022-12-03T12:34:02.379Z,60.20
2022-12-03T12:36:31.294Z,60.02
2022-12-03T12:38:58.248Z,59.45
2022-12-03T12:44:05.098Z,58.28
2022-12-03T12:46:47.622Z,57.14
2022-12-03T12:49:23.778Z,57.42
2022-12-03T12:51:50.574Z,57.61
2022-12-03T12:54:17.081Z,57.70
2022-12-03T12:59:24.897Z,57.71
2022-12-03T13:01:51.697Z,57.64
2022-12-03T13:04:18.244Z,58.22
2022-12-03T13:06:44.718Z,57.74
2022-12-03T13:09:18.791Z,58.23
2022-12-03T13:11:46.242Z,56.87
2022-12-03T13:14:13.793Z,57.66
2022-12-03T13:16:40.370Z,58.83
2022-12-03T13:19:06.920Z,57.65
2022-12-03T13:21:37.259Z,58.01
2022-12-03T13:24:03.637Z,58.67
2022-12-03T13:26:38.782Z,58.03
2022-12-03T13:29:05.672Z,58.47
2022-12-03T13:31:32.305Z,59.42
2022-12-03T13:33:58.829Z,58.29
2022-12-03T13:36:25.384Z,59.06
2022-12-03T13:38:51.876Z,59.10
2022-12-03T13:41:18.508Z,58.81
2022-12-03T13:43:44.999Z,58.75
2022-12-03T13:46:11.613Z,58.87
2022-12-03T13:48:40.289Z,58.76
2022-12-03T13:51:06.806Z,59.73
2022-12-03T13:53:33.274Z,58.58
2022-12-03T13:55:59.866Z,59.42
2022-12-03T13:58:26.420Z,59.29
2022-12-03T14:00:52.993Z,58.84
2022-12-03T14:03:21.561Z,58.71
2022-12-03T14:05:48.194Z,58.82
2022-12-03T14:08:14.935Z,57.97
2022-12-03T14:10:41.550Z,57.66
2022-12-03T14:15:54.349Z,57.99
2022-12-03T14:18:28.073Z,58.15
2022-12-03T14:21:02.372Z,58.01
2022-12-03T14:23:31.342Z,58.22
2022-12-03T14:26:02.425Z,57.51
2022-12-03T14:28:28.970Z,57.92
2022-12-03T14:30:55.569Z,58.79
2022-12-03T14:33:22.083Z,58.22
2022-12-03T14:35:48.566Z,57.91
2022-12-03T14:38:17.108Z,58.93
2022-12-03T14:40:43.602Z,58.84
2022-12-03T14:43:10.129Z,58.21
2022-12-03T14:45:36.758Z,57.90
2022-12-03T14:48:03.334Z,58.42
2022-12-03T14:50:30.814Z,58.06
2022-12-03T14:52:57.281Z,58.17
2022-12-03T14:55:23.792Z,57.74
2022-12-03T14:57:52.220Z,57.45
2022-12-03T15:00:18.707Z,58.05
2022-12-03T15:02:45.330Z,57.25
2022-12-03T15:05:14.884Z,57.20
2022-12-03T15:07:41.593Z,57.39
2022-12-03T15:10:08.053Z,57.16
2022-12-03T15:12:34.516Z,57.05
2022-12-03T15:15:01.043Z,57.56
2022-12-03T15:28:29.075Z,57.61
2022-12-03T15:33:35.806Z,57.19
2022-12-03T15:38:42.699Z,57.06
2022-12-03T15:41:15.054Z,56.95
2022-12-03T15:43:59.550Z,57.77
2022-12-03T15:46:26.156Z,57.61
2022-12-03T15:48:52.766Z,57.20
2022-12-03T15:51:19.422Z,57.72
2022-12-03T15:53:45.905Z,57.80
2022-12-03T15:56:14.699Z,58.07
2022-12-03T15:58:41.137Z,58.24
2022-12-03T16:01:07.791Z,57.81
2022-12-03T16:03:34.553Z,57.68
2022-12-03T16:06:01.034Z,58.27
2022-12-03T16:08:30.483Z,58.22
2022-12-03T16:10:57.153Z,58.19
2022-12-03T16:13:23.651Z,57.79
2022-12-03T16:15:50.214Z,58.00
2022-12-03T16:18:16.691Z,58.49
2022-12-03T16:20:43.260Z,58.48
2022-12-03T16:23:12.161Z,59.06
2022-12-03T16:28:18.979Z,59.30
2022-12-03T16:30:45.522Z,59.54
2022-12-03T16:33:12.028Z,59.12
2022-12-03T16:35:38.612Z,59.24
2022-12-03T16:38:05.182Z,59.70
2022-12-03T16:40:31.652Z,58.97
2022-12-03T16:43:00.179Z,58.86
2022-12-03T16:45:26.759Z,58.72
2022-12-03T16:47:53.414Z,58.41
2022-12-03T16:50:27.340Z,58.56
2022-12-03T16:52:55.792Z,58.96
2022-12-03T16:55:22.250Z,59.37
2022-12-03T16:57:48.761Z,59.11
2022-12-03T17:00:15.306Z,59.88
2022-12-03T17:02:41.914Z,60.06
2022-12-03T17:05:08.500Z,60.14
2022-12-03T17:07:36.511Z,60.60
2022-12-03T17:10:10.597Z,60.07
2022-12-03T17:15:27.302Z,59.60
2022-12-03T17:17:55.366Z,59.82
2022-12-03T17:20:23.902Z,59.67
2022-12-03T17:22:50.385Z,60.13
2022-12-03T17:25:16.910Z,59.92
2022-12-03T17:27:45.397Z,60.08
2022-12-03T17:30:15.693Z,60.14
2022-12-03T17:32:42.207Z,59.65
2022-12-03T17:35:08.776Z,60.04
2022-12-03T17:37:35.315Z,59.61
2022-12-03T17:40:04.611Z,59.99
2022-12-03T17:42:34.633Z,59.75
2022-12-03T17:45:01.155Z,59.95
2022-12-03T17:47:35.307Z,59.36
2022-12-03T17:50:04.346Z,59.49
2022-12-03T17:52:31.058Z,59.85
2022-12-03T17:55:19.216Z,59.96
2022-12-03T17:57:45.415Z,60.46
2022-12-03T18:00:22.177Z,59.53
2022-12-03T18:02:48.704Z,59.47
2022-12-03T18:05:15.166Z,60.13
2022-12-03T18:07:41.860Z,59.85
2022-12-03T18:10:15.033Z,59.54
2022-12-03T18:12:41.635Z,59.32
2022-12-03T18:15:08.173Z,59.67
2022-12-03T18:17:36.835Z,59.48
2022-12-03T18:20:03.367Z,59.06
2022-12-03T18:22:29.787Z,59.62
2022-12-03T18:25:02.902Z,59.54
2022-12-03T18:27:29.424Z,59.49
2022-12-03T18:29:56.409Z,59.53
2022-12-03T18:32:29.182Z,59.51
2022-12-03T18:34:57.894Z,59.98
2022-12-03T18:37:25.248Z,59.80
2022-12-03T18:39:53.832Z,59.68
2022-12-03T18:45:08.166Z,59.46
2022-12-03T18:47:34.943Z,58.67
2022-12-03T18:50:01.422Z,58.70
2022-12-03T18:52:27.962Z,58.94
2022-12-03T18:54:54.549Z,59.42
2022-12-03T18:57:21.187Z,59.66
2022-12-03T18:59:48.481Z,59.61
2022-12-03T19:02:38.599Z,59.33
2022-12-03T19:05:09.697Z,59.88
2022-12-03T19:07:36.317Z,59.64
2022-12-03T19:10:02.811Z,59.17
2022-12-03T19:12:29.252Z,59.62
2022-12-03T19:14:55.653Z,59.82
2022-12-03T19:17:22.094Z,60.01
2022-12-03T19:19:48.510Z,59.65
2022-12-03T19:22:18.556Z,60.01
2022-12-03T19:24:44.890Z,59.44
2022-12-03T19:27:11.256Z,59.63
2022-12-03T19:29:39.127Z,59.77
2022-12-03T19:32:05.569Z,60.04
2022-12-03T19:34:32.021Z,59.60
2022-12-03T19:36:58.457Z,59.95
2022-12-03T19:39:25.912Z,60.25
2022-12-03T19:41:52.307Z,59.83
2022-12-03T19:44:18.699Z,59.61
2022-12-03T19:46:45.150Z,60.20
2022-12-03T19:49:11.531Z,60.27
2022-12-03T19:51:37.948Z,59.98
2022-12-03T19:54:04.434Z,60.49
2022-12-03T19:56:33.903Z,60.02
2022-12-03T19:59:00.502Z,60.38
2022-12-03T20:01:27.013Z,59.98
2022-12-03T20:03:53.701Z,60.47
2022-12-03T20:06:21.343Z,59.98
2022-12-03T20:08:47.731Z,60.03
2022-12-03T20:11:14.081Z,60.61
2022-12-03T20:13:40.524Z,60.50
2022-12-03T20:16:06.914Z,60.36
2022-12-03T20:18:35.437Z,59.89
2022-12-03T20:21:01.899Z,60.04
2022-12-03T20:23:28.410Z,60.27
2022-12-03T20:25:54.778Z,59.88
2022-12-03T20:28:21.177Z,60.34
2022-12-03T20:30:50.273Z,60.34
2022-12-03T20:33:16.702Z,60.20
2022-12-03T20:35:43.052Z,60.14
2022-12-03T20:38:09.453Z,60.63
2022-12-03T20:40:35.873Z,60.50
2022-12-03T20:43:02.292Z,60.74
2022-12-03T20:45:28.725Z,60.85
2022-12-03T20:47:55.216Z,61.12
2022-12-03T20:50:21.588Z,60.79
2022-12-03T20:53:09.410Z,60.55
2022-12-03T20:55:34.409Z,60.83
2022-12-03T20:58:02.171Z,60.05
2022-12-03T21:00:28.551Z,60.18
2022-12-03T21:02:55.007Z,59.96
2022-12-03T21:05:21.449Z,60.27
2022-12-03T21:07:48.010Z,60.35
2022-12-03T21:10:14.430Z,60.84
2022-12-03T21:12:40.793Z,61.10
2022-12-03T21:15:07.146Z,60.45
2022-12-03T21:17:33.712Z,60.49
2022-12-03T21:20:00.221Z,60.51
2022-12-03T21:22:26.607Z,60.88
2022-12-03T21:24:53.081Z,60.86
2022-12-03T21:27:21.795Z,60.71
2022-12-03T21:29:49.911Z,60.69
2022-12-03T21:32:16.275Z,61.10
2022-12-03T21:34:42.711Z,61.70
2022-12-03T21:37:09.322Z,61.51
2022-12-03T21:39:38.141Z,62.21
2022-12-03T21:42:22.260Z,61.98
2022-12-03T21:44:51.213Z,62.22
2022-12-03T21:47:18.813Z,61.92
2022-12-03T21:49:46.572Z,61.94
2022-12-03T21:52:12.991Z,61.69
2022-12-03T21:54:39.393Z,61.24
2022-12-03T21:57:05.759Z,61.23
2022-12-03T21:59:32.162Z,60.79
2022-12-03T22:01:58.601Z,60.63
2022-12-03T22:04:25.025Z,60.84
2022-12-03T22:06:51.593Z,60.81
2022-12-03T22:09:21.833Z,60.65
2022-12-03T22:11:52.652Z,60.44
2022-12-03T22:14:19.014Z,61.13
2022-12-03T22:16:45.456Z,60.49
2022-12-03T22:19:11.819Z,60.82
2022-12-03T22:21:39.798Z,60.50
2022-12-03T22:24:06.224Z,61.31
2022-12-03T22:26:35.149Z,60.77
2022-12-03T22:29:01.712Z,61.80
2022-12-03T22:31:28.175Z,62.01
2022-12-03T22:33:54.575Z,62.58
2022-12-03T22:36:21.902Z,62.63
2022-12-03T22:38:50.815Z,63.17
2022-12-03T22:41:17.189Z,62.86
2022-12-03T22:43:43.654Z,63.38
2022-12-03T22:46:10.557Z,63.61
2022-12-03T22:48:44.723Z,63.20
2022-12-03T22:51:11.329Z,62.70
2022-12-03T22:53:40.819Z,63.27
2022-12-03T22:56:07.262Z,62.54
2022-12-03T22:58:33.709Z,63.26
2022-12-03T23:01:03.133Z,61.84
2022-12-03T23:03:35.302Z,61.57
2022-12-03T23:06:02.183Z,61.78
2022-12-03T23:08:31.012Z,61.36
2022-12-03T23:10:57.376Z,61.64
2022-12-03T23:13:23.794Z,61.25
2022-12-03T23:15:50.216Z,61.68
2022-12-03T23:18:16.719Z,61.19
2022-12-03T23:20:43.124Z,61.22
2022-12-03T23:23:09.504Z,61.84
2022-12-03T23:25:38.332Z,61.51
2022-12-03T23:28:04.767Z,61.81
2022-12-03T23:30:31.178Z,63.01
2022-12-03T23:32:57.593Z,63.21
2022-12-03T23:35:23.963Z,63.36
2022-12-03T23:37:50.311Z,64.29
2022-12-03T23:40:17.643Z,64.24
2022-12-03T23:42:45.003Z,63.56
2022-12-03T23:45:14.139Z,63.65
2022-12-03T23:47:40.646Z,64.18
2022-12-03T23:50:07.025Z,63.35
2022-12-03T23:52:33.631Z,63.66
2022-12-03T23:54:59.992Z,63.79
2022-12-03T23:57:26.625Z,63.49
2022-12-03T23:59:53.464Z,63.53
